sensor_id;sensor_type;location;lat;lon;timestamp;P1;durP1;ratioP1;P2;durP2;ratioP2
75716;SDS011;64333;50.138;14.332;2023-08-01T00:00:43;0.28;;;0.28;;
75716;SDS011;64333;50.138;14.332;2023-08-01T00:03:09;0.13;;;0.13;;
75716;SDS011;64333;50.138;14.332;2023-08-01T00:05:34;0.90;;;0.32;;
75716;SDS011;64333;50.138;14.332;2023-08-01T00:07:59;0.08;;;0.08;;
75716;SDS011;64333;50.138;14.332;2023-08-01T00:10:25;0.22;;;0.22;;
75716;SDS011;64333;50.138;14.332;2023-08-01T00:12:50;0.08;;;0.08;;
75716;SDS011;64333;50.138;14.332;2023-08-01T00:15:15;0.05;;;0.05;;
75716;SDS011;64333;50.138;14.332;2023-08-01T00:17:41;0.30;;;0.28;;
75716;SDS011;64333;50.138;14.332;2023-08-01T00:20:06;0.00;;;0.00;;
75716;SDS011;64333;50.138;14.332;2023-08-01T00:22:32;0.38;;;0.35;;
75716;SDS011;64333;50.138;14.332;2023-08-01T00:24:57;0.00;;;0.00;;
75716;SDS011;64333;50.138;14.332;2023-08-01T00:27:23;0.03;;;0.03;;
75716;SDS011;64333;50.138;14.332;2023-08-01T00:29:49;0.50;;;0.50;;
75716;SDS011;64333;50.138;14.332;2023-08-01T00:32:14;0.00;;;0.00;;
75716;SDS011;64333;50.138;14.332;2023-08-01T00:34:40;0.10;;;0.10;;
75716;SDS011;64333;50.138;14.332;2023-08-01T00:37:05;0.00;;;0.00;;
75716;SDS011;64333;50.138;14.332;2023-08-01T00:39:31;0.50;;;0.50;;
75716;SDS011;64333;50.138;14.332;2023-08-01T00:41:56;0.10;;;0.10;;
75716;SDS011;64333;50.138;14.332;2023-08-01T00:44:22;0.05;;;0.05;;
75716;SDS011;64333;50.138;14.332;2023-08-01T00:46:48;0.60;;;0.20;;
75716;SDS011;64333;50.138;14.332;2023-08-01T00:49:14;0.40;;;0.40;;
75716;SDS011;64333;50.138;14.332;2023-08-01T00:51:39;0.00;;;0.00;;
75716;SDS011;64333;50.138;14.332;2023-08-01T00:54:06;0.20;;;0.20;;
75716;SDS011;64333;50.138;14.332;2023-08-01T00:56:31;0.08;;;0.08;;
75716;SDS011;64333;50.138;14.332;2023-08-01T00:58:57;0.43;;;0.43;;
75716;SDS011;64333;50.138;14.332;2023-08-01T01:01:22;0.45;;;0.32;;
75716;SDS011;64333;50.138;14.332;2023-08-01T01:03:48;1.20;;;0.32;;
75716;SDS011;64333;50.138;14.332;2023-08-01T01:06:34;0.43;;;0.35;;
75716;SDS011;64333;50.138;14.332;2023-08-01T01:09:18;0.30;;;0.30;;
75716;SDS011;64333;50.138;14.332;2023-08-01T01:11:45;0.00;;;0.00;;
75716;SDS011;64333;50.138;14.332;2023-08-01T01:14:11;1.15;;;0.70;;
75716;SDS011;64333;50.138;14.332;2023-08-01T01:16:37;0.73;;;0.73;;
75716;SDS011;64333;50.138;14.332;2023-08-01T01:19:06;0.60;;;0.57;;
75716;SDS011;64333;50.138;14.332;2023-08-01T01:21:36;0.20;;;0.20;;
75716;SDS011;64333;50.138;14.332;2023-08-01T01:24:04;0.52;;;0.52;;
75716;SDS011;64333;50.138;14.332;2023-08-01T01:26:32;0.17;;;0.17;;
75716;SDS011;64333;50.138;14.332;2023-08-01T01:28:58;7.78;;;0.40;;
75716;SDS011;64333;50.138;14.332;2023-08-01T01:31:25;0.32;;;0.10;;
75716;SDS011;64333;50.138;14.332;2023-08-01T01:33:50;0.00;;;0.00;;
75716;SDS011;64333;50.138;14.332;2023-08-01T01:36:16;0.35;;;0.35;;
75716;SDS011;64333;50.138;14.332;2023-08-01T01:38:41;0.00;;;0.00;;
75716;SDS011;64333;50.138;14.332;2023-08-01T01:41:10;0.32;;;0.32;;
75716;SDS011;64333;50.138;14.332;2023-08-01T01:43:36;0.10;;;0.10;;
75716;SDS011;64333;50.138;14.332;2023-08-01T01:46:02;0.93;;;0.93;;
75716;SDS011;64333;50.138;14.332;2023-08-01T01:48:28;0.25;;;0.25;;
75716;SDS011;64333;50.138;14.332;2023-08-01T01:50:53;0.20;;;0.20;;
75716;SDS011;64333;50.138;14.332;2023-08-01T01:53:19;0.20;;;0.20;;
75716;SDS011;64333;50.138;14.332;2023-08-01T01:55:44;0.10;;;0.08;;
75716;SDS011;64333;50.138;14.332;2023-08-01T01:58:09;0.00;;;0.00;;
75716;SDS011;64333;50.138;14.332;2023-08-01T02:00:35;0.22;;;0.22;;
75716;SDS011;64333;50.138;14.332;2023-08-01T02:03:00;0.30;;;0.30;;
75716;SDS011;64333;50.138;14.332;2023-08-01T02:05:27;0.63;;;0.63;;
75716;SDS011;64333;50.138;14.332;2023-08-01T02:07:53;0.13;;;0.10;;
75716;SDS011;64333;50.138;14.332;2023-08-01T02:10:19;0.00;;;0.00;;
75716;SDS011;64333;50.138;14.332;2023-08-01T02:12:44;0.03;;;0.03;;
75716;SDS011;64333;50.138;14.332;2023-08-01T02:15:10;0.00;;;0.00;;
75716;SDS011;64333;50.138;14.332;2023-08-01T02:17:35;0.32;;;0.32;;
75716;SDS011;64333;50.138;14.332;2023-08-01T02:20:00;0.20;;;0.20;;
75716;SDS011;64333;50.138;14.332;2023-08-01T02:22:26;0.25;;;0.10;;
75716;SDS011;64333;50.138;14.332;2023-08-01T02:24:52;0.10;;;0.10;;
75716;SDS011;64333;50.138;14.332;2023-08-01T02:27:17;0.00;;;0.00;;
75716;SDS011;64333;50.138;14.332;2023-08-01T02:29:43;0.03;;;0.03;;
75716;SDS011;64333;50.138;14.332;2023-08-01T02:32:09;0.30;;;0.30;;
75716;SDS011;64333;50.138;14.332;2023-08-01T02:34:35;0.40;;;0.40;;
75716;SDS011;64333;50.138;14.332;2023-08-01T02:37:00;0.00;;;0.00;;
75716;SDS011;64333;50.138;14.332;2023-08-01T02:39:25;1.00;;;0.22;;
75716;SDS011;64333;50.138;14.332;2023-08-01T02:41:51;0.00;;;0.00;;
75716;SDS011;64333;50.138;14.332;2023-08-01T02:44:16;0.17;;;0.10;;
75716;SDS011;64333;50.138;14.332;2023-08-01T02:46:42;0.32;;;0.25;;
75716;SDS011;64333;50.138;14.332;2023-08-01T02:49:07;0.30;;;0.20;;
75716;SDS011;64333;50.138;14.332;2023-08-01T02:51:33;1.17;;;1.17;;
75716;SDS011;64333;50.138;14.332;2023-08-01T02:53:58;0.47;;;0.43;;
75716;SDS011;64333;50.138;14.332;2023-08-01T02:56:23;0.43;;;0.28;;
75716;SDS011;64333;50.138;14.332;2023-08-01T02:58:49;0.00;;;0.00;;
75716;SDS011;64333;50.138;14.332;2023-08-01T03:01:16;2.70;;;1.13;;
75716;SDS011;64333;50.138;14.332;2023-08-01T03:03:42;1.67;;;0.60;;
75716;SDS011;64333;50.138;14.332;2023-08-01T03:06:07;0.20;;;0.20;;
75716;SDS011;64333;50.138;14.332;2023-08-01T03:08:33;0.10;;;0.10;;
75716;SDS011;64333;50.138;14.332;2023-08-01T03:10:59;0.00;;;0.00;;
75716;SDS011;64333;50.138;14.332;2023-08-01T03:13:24;0.15;;;0.15;;
75716;SDS011;64333;50.138;14.332;2023-08-01T03:15:49;0.40;;;0.40;;
75716;SDS011;64333;50.138;14.332;2023-08-01T03:18:15;0.20;;;0.20;;
75716;SDS011;64333;50.138;14.332;2023-08-01T03:20:40;0.45;;;0.43;;
75716;SDS011;64333;50.138;14.332;2023-08-01T03:23:06;0.35;;;0.13;;
75716;SDS011;64333;50.138;14.332;2023-08-01T03:25:31;1.55;;;0.10;;
75716;SDS011;64333;50.138;14.332;2023-08-01T03:28:00;0.20;;;0.20;;
75716;SDS011;64333;50.138;14.332;2023-08-01T03:30:25;0.40;;;0.40;;
75716;SDS011;64333;50.138;14.332;2023-08-01T03:32:51;0.90;;;0.68;;
75716;SDS011;64333;50.138;14.332;2023-08-01T03:35:16;0.10;;;0.10;;
75716;SDS011;64333;50.138;14.332;2023-08-01T03:37:43;0.35;;;0.35;;
75716;SDS011;64333;50.138;14.332;2023-08-01T03:40:08;0.00;;;0.00;;
75716;SDS011;64333;50.138;14.332;2023-08-01T03:42:34;0.30;;;0.30;;
75716;SDS011;64333;50.138;14.332;2023-08-01T03:45:00;1.88;;;0.25;;
75716;SDS011;64333;50.138;14.332;2023-08-01T03:47:41;0.32;;;0.32;;
75716;SDS011;64333;50.138;14.332;2023-08-01T03:50:06;0.73;;;0.63;;
75716;SDS011;64333;50.138;14.332;2023-08-01T03:52:32;6.82;;;0.30;;
75716;SDS011;64333;50.138;14.332;2023-08-01T03:54:57;0.00;;;0.00;;
75716;SDS011;64333;50.138;14.332;2023-08-01T03:57:23;0.32;;;0.32;;
75716;SDS011;64333;50.138;14.332;2023-08-01T03:59:48;0.30;;;0.30;;
75716;SDS011;64333;50.138;14.332;2023-08-01T04:02:14;0.43;;;0.43;;
75716;SDS011;64333;50.138;14.332;2023-08-01T04:04:39;0.13;;;0.13;;
75716;SDS011;64333;50.138;14.332;2023-08-01T04:07:04;1.35;;;0.55;;
75716;SDS011;64333;50.138;14.332;2023-08-01T04:09:30;0.52;;;0.52;;
75716;SDS011;64333;50.138;14.332;2023-08-01T04:11:55;0.40;;;0.40;;
75716;SDS011;64333;50.138;14.332;2023-08-01T04:14:22;0.20;;;0.20;;
75716;SDS011;64333;50.138;14.332;2023-08-01T04:16:47;0.10;;;0.10;;
75716;SDS011;64333;50.138;14.332;2023-08-01T04:19:13;0.20;;;0.20;;
75716;SDS011;64333;50.138;14.332;2023-08-01T04:21:38;0.40;;;0.40;;
75716;SDS011;64333;50.138;14.332;2023-08-01T04:24:04;0.00;;;0.00;;
75716;SDS011;64333;50.138;14.332;2023-08-01T04:26:29;0.15;;;0.15;;
75716;SDS011;64333;50.138;14.332;2023-08-01T04:28:55;0.20;;;0.20;;
75716;SDS011;64333;50.138;14.332;2023-08-01T04:31:20;0.45;;;0.45;;
75716;SDS011;64333;50.138;14.332;2023-08-01T04:33:45;0.10;;;0.10;;
75716;SDS011;64333;50.138;14.332;2023-08-01T04:36:11;0.00;;;0.00;;
75716;SDS011;64333;50.138;14.332;2023-08-01T04:38:36;0.57;;;0.57;;
75716;SDS011;64333;50.138;14.332;2023-08-01T04:41:05;0.00;;;0.00;;
75716;SDS011;64333;50.138;14.332;2023-08-01T04:43:33;0.40;;;0.40;;
75716;SDS011;64333;50.138;14.332;2023-08-01T04:45:59;0.08;;;0.08;;
75716;SDS011;64333;50.138;14.332;2023-08-01T04:48:24;0.20;;;0.20;;
75716;SDS011;64333;50.138;14.332;2023-08-01T04:50:49;0.10;;;0.10;;
75716;SDS011;64333;50.138;14.332;2023-08-01T04:53:15;0.55;;;0.32;;
75716;SDS011;64333;50.138;14.332;2023-08-01T04:55:40;0.03;;;0.03;;
75716;SDS011;64333;50.138;14.332;2023-08-01T04:58:06;0.00;;;0.00;;
75716;SDS011;64333;50.138;14.332;2023-08-01T05:00:31;0.75;;;0.75;;
75716;SDS011;64333;50.138;14.332;2023-08-01T05:02:56;0.20;;;0.20;;
75716;SDS011;64333;50.138;14.332;2023-08-01T05:05:22;0.35;;;0.25;;
75716;SDS011;64333;50.138;14.332;2023-08-01T05:07:47;0.00;;;0.00;;
75716;SDS011;64333;50.138;14.332;2023-08-01T05:10:13;1.25;;;1.17;;
75716;SDS011;64333;50.138;14.332;2023-08-01T05:12:38;0.13;;;0.13;;
75716;SDS011;64333;50.138;14.332;2023-08-01T05:15:07;0.00;;;0.00;;
75716;SDS011;64333;50.138;14.332;2023-08-01T05:17:33;0.10;;;0.10;;
75716;SDS011;64333;50.138;14.332;2023-08-01T05:19:58;0.00;;;0.00;;
75716;SDS011;64333;50.138;14.332;2023-08-01T05:22:23;0.10;;;0.10;;
75716;SDS011;64333;50.138;14.332;2023-08-01T05:24:49;0.00;;;0.00;;
75716;SDS011;64333;50.138;14.332;2023-08-01T05:27:14;0.40;;;0.32;;
75716;SDS011;64333;50.138;14.332;2023-08-01T05:29:40;1.13;;;0.68;;
75716;SDS011;64333;50.138;14.332;2023-08-01T05:32:05;0.40;;;0.40;;
75716;SDS011;64333;50.138;14.332;2023-08-01T05:34:31;0.00;;;0.00;;
75716;SDS011;64333;50.138;14.332;2023-08-01T05:36:57;1.35;;;0.08;;
75716;SDS011;64333;50.138;14.332;2023-08-01T05:39:22;0.73;;;0.30;;
75716;SDS011;64333;50.138;14.332;2023-08-01T05:41:48;0.03;;;0.03;;
75716;SDS011;64333;50.138;14.332;2023-08-01T05:44:15;0.10;;;0.10;;
75716;SDS011;64333;50.138;14.332;2023-08-01T05:46:40;0.00;;;0.00;;
75716;SDS011;64333;50.138;14.332;2023-08-01T05:49:06;0.15;;;0.15;;
75716;SDS011;64333;50.138;14.332;2023-08-01T05:51:32;0.00;;;0.00;;
75716;SDS011;64333;50.138;14.332;2023-08-01T05:53:57;0.55;;;0.55;;
75716;SDS011;64333;50.138;14.332;2023-08-01T05:56:23;2.70;;;2.35;;
75716;SDS011;64333;50.138;14.332;2023-08-01T05:58:49;0.22;;;0.22;;
75716;SDS011;64333;50.138;14.332;2023-08-01T06:01:15;0.00;;;0.00;;
75716;SDS011;64333;50.138;14.332;2023-08-01T06:03:41;0.20;;;0.20;;
75716;SDS011;64333;50.138;14.332;2023-08-01T06:06:07;1.92;;;0.40;;
75716;SDS011;64333;50.138;14.332;2023-08-01T06:08:33;0.00;;;0.00;;
75716;SDS011;64333;50.138;14.332;2023-08-01T06:10:58;0.65;;;0.65;;
75716;SDS011;64333;50.138;14.332;2023-08-01T06:13:24;0.40;;;0.20;;
75716;SDS011;64333;50.138;14.332;2023-08-01T06:15:49;0.63;;;0.63;;
75716;SDS011;64333;50.138;14.332;2023-08-01T06:18:18;0.63;;;0.63;;
75716;SDS011;64333;50.138;14.332;2023-08-01T06:20:43;0.10;;;0.10;;
75716;SDS011;64333;50.138;14.332;2023-08-01T06:23:08;0.10;;;0.10;;
75716;SDS011;64333;50.138;14.332;2023-08-01T06:25:34;0.00;;;0.00;;
75716;SDS011;64333;50.138;14.332;2023-08-01T06:27:59;0.03;;;0.03;;
75716;SDS011;64333;50.138;14.332;2023-08-01T06:30:25;0.10;;;0.10;;
75716;SDS011;64333;50.138;14.332;2023-08-01T06:32:51;0.45;;;0.28;;
75716;SDS011;64333;50.138;14.332;2023-08-01T06:35:16;0.68;;;0.40;;
75716;SDS011;64333;50.138;14.332;2023-08-01T06:37:52;0.30;;;0.15;;
75716;SDS011;64333;50.138;14.332;2023-08-01T06:40:18;0.00;;;0.00;;
75716;SDS011;64333;50.138;14.332;2023-08-01T06:42:43;2.05;;;0.50;;
75716;SDS011;64333;50.138;14.332;2023-08-01T06:45:09;0.00;;;0.00;;
75716;SDS011;64333;50.138;14.332;2023-08-01T06:47:34;0.25;;;0.25;;
75716;SDS011;64333;50.138;14.332;2023-08-01T06:50:00;0.00;;;0.00;;
75716;SDS011;64333;50.138;14.332;2023-08-01T06:52:29;0.17;;;0.17;;
75716;SDS011;64333;50.138;14.332;2023-08-01T06:54:55;0.70;;;0.70;;
75716;SDS011;64333;50.138;14.332;2023-08-01T06:57:20;0.00;;;0.00;;
75716;SDS011;64333;50.138;14.332;2023-08-01T06:59:46;0.03;;;0.03;;
75716;SDS011;64333;50.138;14.332;2023-08-01T07:02:12;0.00;;;0.00;;
75716;SDS011;64333;50.138;14.332;2023-08-01T07:04:37;0.00;;;0.00;;
75716;SDS011;64333;50.138;14.332;2023-08-01T07:07:03;0.10;;;0.05;;
75716;SDS011;64333;50.138;14.332;2023-08-01T07:09:29;0.85;;;0.52;;
75716;SDS011;64333;50.138;14.332;2023-08-01T07:11:54;1.20;;;0.75;;
75716;SDS011;64333;50.138;14.332;2023-08-01T07:14:19;0.17;;;0.13;;
75716;SDS011;64333;50.138;14.332;2023-08-01T07:16:45;0.00;;;0.00;;
75716;SDS011;64333;50.138;14.332;2023-08-01T07:19:10;0.38;;;0.10;;
75716;SDS011;64333;50.138;14.332;2023-08-01T07:21:36;0.20;;;0.20;;
75716;SDS011;64333;50.138;14.332;2023-08-01T07:24:01;0.10;;;0.10;;
75716;SDS011;64333;50.138;14.332;2023-08-01T07:26:27;0.00;;;0.00;;
75716;SDS011;64333;50.138;14.332;2023-08-01T07:28:54;0.38;;;0.28;;
75716;SDS011;64333;50.138;14.332;2023-08-01T07:31:19;0.03;;;0.03;;
75716;SDS011;64333;50.138;14.332;2023-08-01T07:33:45;0.35;;;0.35;;
75716;SDS011;64333;50.138;14.332;2023-08-01T07:36:10;1.75;;;0.73;;
75716;SDS011;64333;50.138;14.332;2023-08-01T07:38:36;0.35;;;0.30;;
75716;SDS011;64333;50.138;14.332;2023-08-01T07:41:04;0.45;;;0.22;;
75716;SDS011;64333;50.138;14.332;2023-08-01T07:43:32;0.30;;;0.30;;
75716;SDS011;64333;50.138;14.332;2023-08-01T07:45:58;0.10;;;0.10;;
75716;SDS011;64333;50.138;14.332;2023-08-01T07:48:24;2.40;;;0.38;;
75716;SDS011;64333;50.138;14.332;2023-08-01T07:50:50;0.15;;;0.15;;
75716;SDS011;64333;50.138;14.332;2023-08-01T07:53:18;0.10;;;0.10;;
75716;SDS011;64333;50.138;14.332;2023-08-01T07:55:46;0.85;;;0.65;;
75716;SDS011;64333;50.138;14.332;2023-08-01T07:58:12;0.03;;;0.03;;
75716;SDS011;64333;50.138;14.332;2023-08-01T08:00:37;0.10;;;0.10;;
75716;SDS011;64333;50.138;14.332;2023-08-01T08:03:04;0.40;;;0.40;;
75716;SDS011;64333;50.138;14.332;2023-08-01T08:05:30;0.43;;;0.43;;
75716;SDS011;64333;50.138;14.332;2023-08-01T08:07:56;0.20;;;0.20;;
75716;SDS011;64333;50.138;14.332;2023-08-01T08:10:22;0.00;;;0.00;;
75716;SDS011;64333;50.138;14.332;2023-08-01T08:12:47;0.00;;;0.00;;
75716;SDS011;64333;50.138;14.332;2023-08-01T08:15:13;0.10;;;0.10;;
75716;SDS011;64333;50.138;14.332;2023-08-01T08:17:40;0.85;;;0.30;;
75716;SDS011;64333;50.138;14.332;2023-08-01T08:20:06;0.20;;;0.20;;
75716;SDS011;64333;50.138;14.332;2023-08-01T08:22:32;0.00;;;0.00;;
75716;SDS011;64333;50.138;14.332;2023-08-01T08:24:57;0.00;;;0.00;;
75716;SDS011;64333;50.138;14.332;2023-08-01T08:27:23;0.00;;;0.00;;
75716;SDS011;64333;50.138;14.332;2023-08-01T08:29:49;0.43;;;0.43;;
75716;SDS011;64333;50.138;14.332;2023-08-01T08:32:15;0.10;;;0.10;;
75716;SDS011;64333;50.138;14.332;2023-08-01T08:34:41;0.03;;;0.03;;
75716;SDS011;64333;50.138;14.332;2023-08-01T08:37:06;0.03;;;0.03;;
75716;SDS011;64333;50.138;14.332;2023-08-01T08:39:32;0.15;;;0.10;;
75716;SDS011;64333;50.138;14.332;2023-08-01T08:41:57;0.00;;;0.00;;
75716;SDS011;64333;50.138;14.332;2023-08-01T08:44:24;0.10;;;0.10;;
75716;SDS011;64333;50.138;14.332;2023-08-01T08:46:50;0.13;;;0.13;;
75716;SDS011;64333;50.138;14.332;2023-08-01T08:49:17;0.00;;;0.00;;
75716;SDS011;64333;50.138;14.332;2023-08-01T08:51:45;0.08;;;0.08;;
75716;SDS011;64333;50.138;14.332;2023-08-01T08:54:11;0.10;;;0.10;;
75716;SDS011;64333;50.138;14.332;2023-08-01T08:56:39;0.00;;;0.00;;
75716;SDS011;64333;50.138;14.332;2023-08-01T08:59:07;0.47;;;0.43;;
75716;SDS011;64333;50.138;14.332;2023-08-01T09:01:35;0.20;;;0.20;;
75716;SDS011;64333;50.138;14.332;2023-08-01T09:04:01;0.20;;;0.20;;
75716;SDS011;64333;50.138;14.332;2023-08-01T09:06:28;0.43;;;0.43;;
75716;SDS011;64333;50.138;14.332;2023-08-01T09:09:05;0.10;;;0.10;;
75716;SDS011;64333;50.138;14.332;2023-08-01T09:11:52;1.48;;;0.10;;
75716;SDS011;64333;50.138;14.332;2023-08-01T09:14:20;0.10;;;0.10;;
75716;SDS011;64333;50.138;14.332;2023-08-01T09:16:46;0.10;;;0.10;;
75716;SDS011;64333;50.138;14.332;2023-08-01T09:19:19;0.08;;;0.08;;
75716;SDS011;64333;50.138;14.332;2023-08-01T09:21:50;0.03;;;0.03;;
75716;SDS011;64333;50.138;14.332;2023-08-01T09:26:45;0.10;;;0.10;;
75716;SDS011;64333;50.138;14.332;2023-08-01T09:29:12;0.55;;;0.55;;
75716;SDS011;64333;50.138;14.332;2023-08-01T09:31:39;0.00;;;0.00;;
75716;SDS011;64333;50.138;14.332;2023-08-01T09:34:06;0.32;;;0.32;;
75716;SDS011;64333;50.138;14.332;2023-08-01T09:36:43;0.70;;;0.20;;
75716;SDS011;64333;50.138;14.332;2023-08-01T09:39:09;0.40;;;0.40;;
75716;SDS011;64333;50.138;14.332;2023-08-01T09:41:44;0.00;;;0.00;;
75716;SDS011;64333;50.138;14.332;2023-08-01T09:44:16;0.00;;;0.00;;
75716;SDS011;64333;50.138;14.332;2023-08-01T09:46:42;0.52;;;0.25;;
75716;SDS011;64333;50.138;14.332;2023-08-01T09:49:12;0.10;;;0.10;;
75716;SDS011;64333;50.138;14.332;2023-08-01T09:51:48;0.55;;;0.35;;
75716;SDS011;64333;50.138;14.332;2023-08-01T09:54:15;0.10;;;0.10;;
75716;SDS011;64333;50.138;14.332;2023-08-01T09:56:44;0.00;;;0.00;;
75716;SDS011;64333;50.138;14.332;2023-08-01T09:59:10;0.10;;;0.10;;
75716;SDS011;64333;50.138;14.332;2023-08-01T10:01:36;0.00;;;0.00;;
75716;SDS011;64333;50.138;14.332;2023-08-01T10:04:04;1.20;;;0.40;;
75716;SDS011;64333;50.138;14.332;2023-08-01T10:06:33;0.20;;;0.20;;
75716;SDS011;64333;50.138;14.332;2023-08-01T10:09:00;0.00;;;0.00;;
75716;SDS011;64333;50.138;14.332;2023-08-01T10:11:26;0.00;;;0.00;;
75716;SDS011;64333;50.138;14.332;2023-08-01T10:13:55;0.30;;;0.30;;
75716;SDS011;64333;50.138;14.332;2023-08-01T10:16:21;0.57;;;0.40;;
75716;SDS011;64333;50.138;14.332;2023-08-01T10:18:50;0.00;;;0.00;;
75716;SDS011;64333;50.138;14.332;2023-08-01T10:21:16;0.00;;;0.00;;
75716;SDS011;64333;50.138;14.332;2023-08-01T10:23:43;0.10;;;0.10;;
75716;SDS011;64333;50.138;14.332;2023-08-01T10:26:11;0.00;;;0.00;;
75716;SDS011;64333;50.138;14.332;2023-08-01T10:28:38;0.00;;;0.00;;
75716;SDS011;64333;50.138;14.332;2023-08-01T10:33:38;0.28;;;0.10;;
75716;SDS011;64333;50.138;14.332;2023-08-01T10:36:18;0.25;;;0.25;;
75716;SDS011;64333;50.138;14.332;2023-08-01T10:38:53;0.10;;;0.10;;
75716;SDS011;64333;50.138;14.332;2023-08-01T10:41:21;0.00;;;0.00;;
75716;SDS011;64333;50.138;14.332;2023-08-01T10:44:12;0.00;;;0.00;;
75716;SDS011;64333;50.138;14.332;2023-08-01T10:49:11;0.22;;;0.20;;
75716;SDS011;64333;50.138;14.332;2023-08-01T10:51:36;0.68;;;0.20;;
75716;SDS011;64333;50.138;14.332;2023-08-01T10:54:02;0.00;;;0.00;;
75716;SDS011;64333;50.138;14.332;2023-08-01T10:56:27;0.08;;;0.08;;
75716;SDS011;64333;50.138;14.332;2023-08-01T10:58:54;0.05;;;0.05;;
75716;SDS011;64333;50.138;14.332;2023-08-01T11:01:19;0.20;;;0.10;;
75716;SDS011;64333;50.138;14.332;2023-08-01T11:03:44;0.00;;;0.00;;
75716;SDS011;64333;50.138;14.332;2023-08-01T11:06:10;0.00;;;0.00;;
75716;SDS011;64333;50.138;14.332;2023-08-01T11:08:36;0.20;;;0.20;;
75716;SDS011;64333;50.138;14.332;2023-08-01T11:11:05;0.00;;;0.00;;
75716;SDS011;64333;50.138;14.332;2023-08-01T11:13:33;0.20;;;0.20;;
75716;SDS011;64333;50.138;14.332;2023-08-01T11:16:02;0.40;;;0.40;;
75716;SDS011;64333;50.138;14.332;2023-08-01T11:18:41;0.10;;;0.10;;
75716;SDS011;64333;50.138;14.332;2023-08-01T11:21:07;0.00;;;0.00;;
75716;SDS011;64333;50.138;14.332;2023-08-01T11:23:33;0.00;;;0.00;;
75716;SDS011;64333;50.138;14.332;2023-08-01T11:25:58;0.43;;;0.10;;
75716;SDS011;64333;50.138;14.332;2023-08-01T11:28:24;0.08;;;0.08;;
75716;SDS011;64333;50.138;14.332;2023-08-01T11:30:49;0.00;;;0.00;;
75716;SDS011;64333;50.138;14.332;2023-08-01T11:35:53;2.03;;;1.50;;
75716;SDS011;64333;50.138;14.332;2023-08-01T11:38:23;3.05;;;1.20;;
75716;SDS011;64333;50.138;14.332;2023-08-01T11:40:51;1.33;;;1.08;;
75716;SDS011;64333;50.138;14.332;2023-08-01T11:43:17;3.45;;;1.20;;
75716;SDS011;64333;50.138;14.332;2023-08-01T11:45:49;1.83;;;1.25;;
75716;SDS011;64333;50.138;14.332;2023-08-01T11:48:15;1.48;;;1.30;;
75716;SDS011;64333;50.138;14.332;2023-08-01T11:50:41;1.83;;;1.00;;
75716;SDS011;64333;50.138;14.332;2023-08-01T11:53:16;2.55;;;1.50;;
75716;SDS011;64333;50.138;14.332;2023-08-01T11:55:43;1.90;;;1.50;;
75716;SDS011;64333;50.138;14.332;2023-08-01T11:58:11;1.65;;;1.23;;
75716;SDS011;64333;50.138;14.332;2023-08-01T12:00:39;3.83;;;1.63;;
75716;SDS011;64333;50.138;14.332;2023-08-01T12:03:08;1.90;;;1.48;;
75716;SDS011;64333;50.138;14.332;2023-08-01T12:05:40;1.63;;;1.52;;
75716;SDS011;64333;50.138;14.332;2023-08-01T12:08:12;1.92;;;1.70;;
75716;SDS011;64333;50.138;14.332;2023-08-01T12:10:40;1.80;;;1.48;;
75716;SDS011;64333;50.138;14.332;2023-08-01T12:13:22;2.55;;;1.60;;
75716;SDS011;64333;50.138;14.332;2023-08-01T12:15:48;2.88;;;1.40;;
75716;SDS011;64333;50.138;14.332;2023-08-01T12:18:21;1.75;;;1.55;;
75716;SDS011;64333;50.138;14.332;2023-08-01T12:20:48;2.42;;;1.50;;
75716;SDS011;64333;50.138;14.332;2023-08-01T12:23:15;2.05;;;1.30;;
75716;SDS011;64333;50.138;14.332;2023-08-01T12:25:40;1.75;;;1.50;;
75716;SDS011;64333;50.138;14.332;2023-08-01T12:28:06;1.67;;;1.40;;
75716;SDS011;64333;50.138;14.332;2023-08-01T12:30:34;2.40;;;1.55;;
75716;SDS011;64333;50.138;14.332;2023-08-01T12:32:59;1.92;;;1.52;;
75716;SDS011;64333;50.138;14.332;2023-08-01T12:35:25;3.67;;;1.40;;
75716;SDS011;64333;50.138;14.332;2023-08-01T12:37:52;2.33;;;1.50;;
75716;SDS011;64333;50.138;14.332;2023-08-01T12:40:18;2.25;;;1.63;;
75716;SDS011;64333;50.138;14.332;2023-08-01T12:42:44;2.80;;;1.23;;
75716;SDS011;64333;50.138;14.332;2023-08-01T12:45:10;2.33;;;1.80;;
75716;SDS011;64333;50.138;14.332;2023-08-01T12:47:35;1.92;;;1.40;;
75716;SDS011;64333;50.138;14.332;2023-08-01T12:50:01;2.00;;;1.25;;
75716;SDS011;64333;50.138;14.332;2023-08-01T12:52:26;2.03;;;1.30;;
75716;SDS011;64333;50.138;14.332;2023-08-01T12:54:52;1.75;;;1.20;;
75716;SDS011;64333;50.138;14.332;2023-08-01T12:57:17;2.22;;;1.33;;
75716;SDS011;64333;50.138;14.332;2023-08-01T12:59:43;2.50;;;1.10;;
75716;SDS011;64333;50.138;14.332;2023-08-01T13:02:09;1.50;;;1.17;;
75716;SDS011;64333;50.138;14.332;2023-08-01T13:04:35;1.95;;;1.10;;
75716;SDS011;64333;50.138;14.332;2023-08-01T13:07:00;2.10;;;1.35;;
75716;SDS011;64333;50.138;14.332;2023-08-01T13:09:26;1.98;;;1.30;;
75716;SDS011;64333;50.138;14.332;2023-08-01T13:11:51;2.15;;;1.23;;
75716;SDS011;64333;50.138;14.332;2023-08-01T13:14:17;2.17;;;1.50;;
75716;SDS011;64333;50.138;14.332;2023-08-01T13:16:42;1.60;;;0.90;;
75716;SDS011;64333;50.138;14.332;2023-08-01T13:19:08;1.70;;;1.02;;
75716;SDS011;64333;50.138;14.332;2023-08-01T13:21:33;1.83;;;1.20;;
75716;SDS011;64333;50.138;14.332;2023-08-01T13:23:59;2.83;;;1.30;;
75716;SDS011;64333;50.138;14.332;2023-08-01T13:26:29;2.70;;;1.40;;
75716;SDS011;64333;50.138;14.332;2023-08-01T13:28:58;2.13;;;1.30;;
75716;SDS011;64333;50.138;14.332;2023-08-01T13:31:24;1.60;;;1.10;;
75716;SDS011;64333;50.138;14.332;2023-08-01T13:33:50;1.92;;;1.15;;
75716;SDS011;64333;50.138;14.332;2023-08-01T13:36:19;1.23;;;1.00;;
75716;SDS011;64333;50.138;14.332;2023-08-01T13:38:45;1.95;;;1.20;;
75716;SDS011;64333;50.138;14.332;2023-08-01T13:41:10;2.55;;;1.30;;
75716;SDS011;64333;50.138;14.332;2023-08-01T13:43:36;2.13;;;1.50;;
75716;SDS011;64333;50.138;14.332;2023-08-01T13:46:11;2.28;;;1.20;;
75716;SDS011;64333;50.138;14.332;2023-08-01T13:48:38;1.23;;;1.10;;
75716;SDS011;64333;50.138;14.332;2023-08-01T13:51:04;3.03;;;1.30;;
75716;SDS011;64333;50.138;14.332;2023-08-01T13:53:29;2.03;;;1.33;;
75716;SDS011;64333;50.138;14.332;2023-08-01T13:55:55;3.00;;;1.50;;
75716;SDS011;64333;50.138;14.332;2023-08-01T13:58:20;1.90;;;1.35;;
75716;SDS011;64333;50.138;14.332;2023-08-01T14:00:46;1.58;;;1.30;;
75716;SDS011;64333;50.138;14.332;2023-08-01T14:03:12;2.55;;;1.42;;
75716;SDS011;64333;50.138;14.332;2023-08-01T14:05:38;1.77;;;1.58;;
75716;SDS011;64333;50.138;14.332;2023-08-01T14:08:03;14.85;;;2.05;;
75716;SDS011;64333;50.138;14.332;2023-08-01T14:10:30;2.17;;;1.50;;
75716;SDS011;64333;50.138;14.332;2023-08-01T14:12:55;1.77;;;1.35;;
75716;SDS011;64333;50.138;14.332;2023-08-01T14:15:20;2.45;;;1.50;;
75716;SDS011;64333;50.138;14.332;2023-08-01T14:17:46;2.20;;;1.48;;
75716;SDS011;64333;50.138;14.332;2023-08-01T14:20:11;3.08;;;1.90;;
75716;SDS011;64333;50.138;14.332;2023-08-01T14:22:37;2.63;;;1.45;;
75716;SDS011;64333;50.138;14.332;2023-08-01T14:25:03;2.25;;;1.50;;
75716;SDS011;64333;50.138;14.332;2023-08-01T14:27:29;2.55;;;1.40;;
75716;SDS011;64333;50.138;14.332;2023-08-01T14:29:55;2.92;;;1.70;;
75716;SDS011;64333;50.138;14.332;2023-08-01T14:32:20;3.05;;;1.70;;
75716;SDS011;64333;50.138;14.332;2023-08-01T14:34:45;2.53;;;1.55;;
75716;SDS011;64333;50.138;14.332;2023-08-01T14:37:11;2.45;;;1.60;;
75716;SDS011;64333;50.138;14.332;2023-08-01T14:39:36;2.85;;;1.42;;